Time;durP1;ratioP1;P1;durP2;ratioP2;P2;SDS_P1;SDS_P2;PMS_P1;PMS_P2;Temp;Humidity;BMP_temperature;BMP_pressure;BME280_temperature;BME280_humidity;BME280_pressure;Samples;Min_cycle;Max_cycle;Signal;HPM_P1;HPM_P2
2022/03/24 00:01:29;;;;;;;35.05;24.13;;;;;;;;;;5075568;28;20025;-67
2022/03/24 00:03:56;;;;;;;45.97;26.27;;;;;;;;;;5075557;28;20052;-67
2022/03/24 00:06:21;;;;;;;48.05;27.92;;;231.30;1510.40;;;;;;5075352;28;20024;-68
2022/03/24 00:08:47;;;;;;;39.38;24.77;;;231.20;1510.40;;;;;;5075461;28;20028;-68
2022/03/24 00:11:13;;;;;;;45.80;25.13;;;231.10;1510.40;;;;;;5075701;28;20391;-68
2022/03/24 00:13:38;;;;;;;36.10;23.27;;;231.10;1536.00;;;;;;5075412;28;20035;-68
2022/03/24 00:16:04;;;;;;;41.13;24.08;;;231.10;1536.00;;;;;;5075664;28;20099;-68
2022/03/24 00:18:32;;;;;;;41.00;24.48;;;231.20;1510.40;;;;;;5075058;28;20035;-68
2022/03/24 00:21:01;;;;;;;44.22;26.08;;;231.30;1510.40;;;;;;5075342;28;20396;-68
2022/03/24 00:23:27;;;;;;;43.60;26.65;;;231.10;1510.40;;;;;;5075362;28;20095;-68
2022/03/24 00:25:53;;;;;;;39.00;24.40;;;231.10;1536.00;;;;;;5075048;28;20040;-68
2022/03/24 00:28:20;;;;;;;49.70;29.35;;;;;;;;;;5075170;28;20031;-68
2022/03/24 00:30:46;;;;;;;45.92;26.60;;;;;;;;;;5075034;28;20095;-68
2022/03/24 00:33:12;;;;;;;42.10;25.75;;;;;;;;;;5075058;28;20016;-68
2022/03/24 00:35:38;;;;;;;40.80;25.05;;;;;;;;;;5074889;28;20032;-68
2022/03/24 00:38:07;;;;;;;33.92;23.48;;;;;;;;;;5075074;28;20086;-68
2022/03/24 00:40:34;;;;;;;32.92;22.55;;;230.90;1536.00;;;;;;5074940;28;20021;-68
2022/03/24 00:43:01;;;;;;;42.65;24.38;;;230.80;1536.00;;;;;;5075205;28;20119;-67
2022/03/24 00:45:29;;;;;;;35.70;22.70;;;230.90;1536.00;;;;;;5075161;28;20028;-67
2022/03/24 00:47:55;;;;;;;36.95;22.58;;;;;;;;;;5074755;28;20025;-67
2022/03/24 00:50:21;;;;;;;39.10;21.83;;;;;;;;;;5074668;28;20142;-67
2022/03/24 00:52:47;;;;;;;33.95;21.52;;;;;;;;;;5074724;28;20031;-67
2022/03/24 00:55:20;;;;;;;52.22;27.65;;;;;;;;;;5074633;28;20033;-67
2022/03/24 00:57:55;;;;;;;42.17;24.98;;;;;;;;;;5074696;28;20498;-67
2022/03/24 01:00:25;;;;;;;30.30;20.00;;;;;;;;;;5074471;28;20028;-67
2022/03/24 01:02:52;;;;;;;37.47;20.45;;;;;;;;;;5074430;28;20475;-68
2022/03/24 01:05:19;;;;;;;36.15;21.65;;;230.60;1561.60;;;;;;5074128;28;20038;-67
2022/03/24 01:07:46;;;;;;;31.42;21.05;;;230.50;1561.60;;;;;;5074494;28;20094;-68
2022/03/24 01:10:13;;;;;;;37.30;22.60;;;;;;;;;;5074042;28;20052;-68
2022/03/24 01:12:40;;;;;;;41.20;23.45;;;;;;;;;;5074238;28;20017;-67
2022/03/24 01:15:08;;;;;;;45.90;24.33;;;230.60;1561.60;;;;;;5074274;28;20446;-67
2022/03/24 01:17:34;;;;;;;41.75;24.88;;;;;;;;;;5074138;28;20090;-67
2022/03/24 01:20:01;;;;;;;38.63;22.25;;;;;;;;;;5073876;28;20029;-67
2022/03/24 01:22:27;;;;;;;36.88;21.50;;;;;;;;;;5074085;28;20059;-67
2022/03/24 01:24:53;;;;;;;30.48;19.45;;;;;;;;;;5073760;28;20056;-67
2022/03/24 01:27:19;;;;;;;33.08;20.42;;;230.40;1561.60;;;;;;5073980;28;20020;-67
2022/03/24 01:29:45;;;;;;;32.42;20.52;;;230.40;1561.60;;;;;;5073988;28;20359;-67
2022/03/24 01:32:11;;;;;;;40.70;20.83;;;205.70;1587.20;;;;;;5073838;28;20024;-67
2022/03/24 01:34:40;;;;;;;30.00;19.77;;;;;;;;;;5073490;28;20078;-67
2022/03/24 01:37:07;;;;;;;33.15;20.52;;;;;;;;;;5073588;28;20029;-67
2022/03/24 01:39:33;;;;;;;29.88;18.83;;;;;;;;;;5073767;28;20479;-68
2022/03/24 01:42:00;;;;;;;26.42;17.63;;;;;;;;;;5073619;28;20154;-68
2022/03/24 01:44:28;;;;;;;30.48;17.73;;;;;;;;;;5073649;28;20021;-69
2022/03/24 01:46:56;;;;;;;26.92;17.55;;;;;;;;;;5073988;28;20020;-68
2022/03/24 01:49:23;;;;;;;29.13;18.30;;;;;;;;;;5073317;28;20113;-68
2022/03/24 01:51:50;;;;;;;37.45;18.25;;;;;;;;;;5073421;28;20117;-68
2022/03/24 01:54:16;;;;;;;35.55;20.20;;;;;;;;;;5073414;28;20033;-68
2022/03/24 01:56:43;;;;;;;32.38;19.58;;;;;;;;;;5073482;28;20482;-68
2022/03/24 01:59:09;;;;;;;29.23;18.10;;;;;;;;;;5073416;28;20074;-68
2022/03/24 02:01:36;;;;;;;28.20;17.58;;;;;;;;;;5073368;28;20017;-68
2022/03/24 02:04:04;;;;;;;25.90;17.42;;;;;;;;;;5073111;28;20024;-68
2022/03/24 02:06:31;;;;;;;34.30;20.77;;;;;;;;;;5073394;28;20111;-67
2022/03/24 02:08:57;;;;;;;25.90;17.13;;;;;;;;;;5073309;28;20060;-67
2022/03/24 02:11:23;;;;;;;24.92;19.00;;;;;;;;;;5073262;28;20035;-68
2022/03/24 02:13:49;;;;;;;30.13;16.77;;;;;;;;;;5073062;28;20093;-68
2022/03/24 02:16:15;;;;;;;25.83;16.00;;;;;;;;;;5073442;28;20056;-67
2022/03/24 02:18:45;;;;;;;28.70;16.92;;;;;;;;;;5072905;28;20037;-68
2022/03/24 02:21:14;;;;;;;25.27;14.27;;;;;;;;;;5072786;28;20013;-68
2022/03/24 02:23:41;;;;;;;23.20;15.35;;;;;;;;;;5072827;28;20024;-68
2022/03/24 02:26:08;;;;;;;29.75;15.73;;;;;;;;;;5072763;28;20040;-67
2022/03/24 02:28:34;;;;;;;25.60;16.30;;;;;;;;;;5073093;28;20020;-67
2022/03/24 02:31:00;;;;;;;24.95;16.77;;;205.40;1612.80;;;;;;5073383;28;20028;-67
2022/03/24 02:33:27;;;;;;;28.98;16.45;;;205.50;1612.80;;;;;;5073262;28;20032;-68
2022/03/24 02:35:53;;;;;;;27.20;16.40;;;;;;;;;;5072719;28;20095;-68
2022/03/24 02:38:22;;;;;;;25.45;16.33;;;;;;;;;;5073167;28;20051;-68
2022/03/24 02:40:51;;;;;;;24.50;14.90;;;205.50;1612.80;;;;;;5073261;28;20103;-67
2022/03/24 02:43:19;;;;;;;25.23;15.35;;;;;;;;;;5073182;28;20395;-68
2022/03/24 02:45:46;;;;;;;22.38;14.38;;;;;;;;;;5072970;28;20024;-68
2022/03/24 02:48:12;;;;;;;25.00;13.45;;;;;;;;;;5072624;28;20025;-68
2022/03/24 02:50:38;;;;;;;23.52;14.95;;;205.50;1612.80;;;;;;5072714;28;20099;-68
2022/03/24 02:53:04;;;;;;;24.98;15.68;;;;;;;;;;5072623;28;20048;-67
2022/03/24 02:55:30;;;;;;;24.65;15.80;;;205.40;1612.80;;;;;;5072683;28;20028;-67
2022/03/24 02:57:56;;;;;;;25.73;14.70;;;205.50;1612.80;;;;;;5072664;28;20077;-67
2022/03/24 03:00:25;;;;;;;29.10;13.95;;;205.50;1612.80;;;;;;5072673;28;20016;-67
2022/03/24 03:02:55;;;;;;;29.50;14.07;;;;;;;;;;5072532;28;20063;-68
2022/03/24 03:05:24;;;;;;;34.13;16.23;;;;;;;;;;5072592;28;20158;-68
2022/03/24 03:07:51;;;;;;;29.67;15.77;;;;;;;;;;5072450;28;20103;-68
2022/03/24 03:10:18;;;;;;;23.38;14.70;;;;;;;;;;5072666;28;20017;-68
2022/03/24 03:12:46;;;;;;;20.98;13.48;;;;;;;;;;5072621;28;20025;-67
2022/03/24 03:15:12;;;;;;;21.08;13.82;;;;;;;;;;5072536;28;20025;-68
2022/03/24 03:17:39;;;;;;;25.38;15.80;;;;;;;;;;5072347;28;20060;-68
2022/03/24 03:20:10;;;;;;;29.38;16.30;;;205.70;1587.20;;;;;;5072640;28;20451;-68
2022/03/24 03:22:37;;;;;;;30.58;15.80;;;;;;;;;;5072389;28;20020;-68
2022/03/24 03:25:03;;;;;;;29.23;16.70;;;;;;;;;;5072371;28;20465;-67
2022/03/24 03:27:31;;;;;;;31.42;17.98;;;;;;;;;;5072622;28;20027;-67
2022/03/24 03:29:57;;;;;;;30.58;17.55;;;;;;;;;;5072483;28;20032;-67
2022/03/24 03:32:24;;;;;;;27.88;17.25;;;205.70;1587.20;;;;;;5072702;28;20029;-67
2022/03/24 03:34:52;;;;;;;27.13;16.40;;;205.70;1561.60;;;;;;5075911;28;20064;-67
2022/03/24 03:37:19;;;;;;;43.38;23.45;;;;;;;;;;5075999;28;20111;-68
2022/03/24 03:39:45;;;;;;;29.98;15.98;;;;;;;;;;5076078;28;20027;-67
2022/03/24 03:42:11;;;;;;;28.60;17.23;;;;;;;;;;5076002;28;20027;-67
2022/03/24 03:44:37;;;;;;;28.00;15.93;;;;;;;;;;5075863;28;20032;-67
2022/03/24 03:47:03;;;;;;;27.20;18.08;;;;;;;;;;5075743;28;20029;-67
2022/03/24 03:49:29;;;;;;;28.13;17.23;;;;;;;;;;5075814;28;20096;-68
2022/03/24 03:51:55;;;;;;;27.98;15.65;;;;;;;;;;5075707;28;20031;-67
2022/03/24 03:54:22;;;;;;;20.10;13.55;;;;;;;;;;5075694;28;20032;-67
2022/03/24 03:56:48;;;;;;;23.10;14.40;;;;;;;;;;5075684;28;20029;-67
2022/03/24 03:59:14;;;;;;;23.15;15.15;;;;;;;;;;5075659;28;20016;-67
2022/03/24 04:01:40;;;;;;;25.33;16.15;;;;;;;;;;5075615;28;20106;-67
2022/03/24 04:04:12;;;;;;;32.80;19.15;;;;;;;;;;5075556;28;20027;-67
2022/03/24 04:06:38;;;;;;;22.63;14.75;;;;;;;;;;5075703;28;20087;-67
2022/03/24 04:09:04;;;;;;;21.60;13.25;;;;;;;;;;5075475;28;20570;-67
2022/03/24 04:11:30;;;;;;;57.85;16.50;;;;;;;;;;5075396;28;20024;-67
2022/03/24 04:13:56;;;;;;;34.00;14.07;;;;;;;;;;5075421;28;20036;-68
2022/03/24 04:16:22;;;;;;;17.42;13.23;;;;;;;;;;5075473;28;20081;-67
2022/03/24 04:18:49;;;;;;;28.13;13.25;;;;;;;;;;5075271;28;20518;-68
2022/03/24 04:21:16;;;;;;;24.02;13.63;;;;;;;;;;5075204;28;20383;-68
2022/03/24 04:23:42;;;;;;;23.05;13.38;;;;;;;;;;5075304;28;20081;-67
2022/03/24 04:26:12;;;;;;;28.45;13.18;;;;;;;;;;5075040;28;20051;-66
2022/03/24 04:28:38;;;;;;;32.47;15.00;;;;;;;;;;5075202;28;20544;-66
2022/03/24 04:31:04;;;;;;;29.55;14.25;;;;;;;;;;5074910;28;20024;-66
2022/03/24 04:33:31;;;;;;;19.50;13.70;;;;;;;;;;5075118;28;20082;-66
2022/03/24 04:35:58;;;;;;;28.00;16.25;;;;;;;;;;5074877;28;20379;-66
2022/03/24 04:38:24;;;;;;;25.27;14.35;;;;;;;;;;5075112;28;20470;-66
2022/03/24 04:40:50;;;;;;;23.08;14.65;;;;;;;;;;5074938;28;20134;-67
2022/03/24 04:43:16;;;;;;;26.13;15.43;;;;;;;;;;5074878;28;20524;-66
2022/03/24 04:45:43;;;;;;;36.15;16.42;;;;;;;;;;5073852;28;20119;-66
2022/03/24 04:48:09;;;;;;;28.45;15.25;;;;;;;;;;5074773;28;20087;-67
2022/03/24 04:50:35;;;;;;;24.70;15.30;;;;;;;;;;5074639;28;20045;-67
2022/03/24 04:53:02;;;;;;;23.85;14.57;;;;;;;;;;5056230;28;20032;-66
2022/03/24 04:55:28;;;;;;;28.77;16.80;;;;;;;;;;5074631;28;20028;-66
2022/03/24 04:57:54;;;;;;;31.77;17.15;;;;;;;;;;5074508;28;20502;-66
2022/03/24 05:00:20;;;;;;;42.67;20.40;;;;;;;;;;5074620;28;20031;-66
2022/03/24 05:02:47;;;;;;;31.77;19.48;;;;;;;;;;5074540;28;20027;-66
2022/03/24 05:05:13;;;;;;;32.47;18.08;;;;;;;;;;5074518;28;20027;-66
2022/03/24 05:07:41;;;;;;;34.30;17.92;;;;;;;;;;5074385;28;20023;-66
2022/03/24 05:10:07;;;;;;;50.58;21.38;;;;;;;;;;5074271;28;20097;-66
2022/03/24 05:12:33;;;;;;;35.20;18.27;;;;;;;;;;5074271;28;20384;-66
2022/03/24 05:14:59;;;;;;;29.90;17.95;;;;;;;;;;5074073;28;20181;-66
2022/03/24 05:17:26;;;;;;;30.27;16.67;;;;;;;;;;5074156;28;20028;-66
2022/03/24 05:19:52;;;;;;;29.40;17.42;;;;;;;;;;5074167;28;20025;-66
2022/03/24 05:22:18;;;;;;;33.75;18.67;;;;;;;;;;5073890;28;20135;-67
2022/03/24 05:24:45;;;;;;;35.85;20.20;;;;;;;;;;5074003;28;20024;-67
2022/03/24 05:27:11;;;;;;;38.72;22.73;;;;;;;;;;5052581;28;20408;-67
2022/03/24 05:29:37;;;;;;;40.08;24.45;;;;;;;;;;5054435;28;20099;-67
2022/03/24 05:32:04;;;;;;;50.47;26.83;;;;;;;;;;5053741;28;20021;-67
2022/03/24 05:34:31;;;;;;;43.45;27.88;;;;;;;;;;5053769;28;20035;-67
2022/03/24 05:36:57;;;;;;;61.13;32.47;;;;;;;;;;5053901;28;20049;-68
2022/03/24 05:39:23;;;;;;;53.40;28.75;;;;;;;;;;5053677;28;20029;-67
2022/03/24 05:41:49;;;;;;;54.55;27.95;;;;;;;;;;5053595;28;20017;-67
2022/03/24 05:44:15;;;;;;;59.40;29.60;;;;;;;;;;5053639;28;20037;-67
2022/03/24 05:46:44;;;;;;;81.60;46.25;;;;;;;;;;5053840;28;20025;-67
2022/03/24 05:49:14;;;;;;;70.95;37.85;;;;;;;;;;5053592;28;20033;-67
2022/03/24 05:51:42;;;;;;;53.40;33.00;;;;;;;;;;5053383;28;20025;-67
2022/03/24 05:54:09;;;;;;;51.78;32.78;;;;;;;;;;5053747;28;20044;-68
2022/03/24 05:56:35;;;;;;;48.00;30.50;;;;;;;;;;5052603;28;20021;-68
2022/03/24 05:59:01;;;;;;;54.28;29.88;;;;;;;;;;5053363;28;20021;-68
2022/03/24 06:01:27;;;;;;;44.22;26.27;;;;;;;;;;5053150;28;20025;-67
2022/03/24 06:03:53;;;;;;;40.25;26.38;;;;;;;;;;5053308;28;20033;-67
2022/03/24 06:06:22;;;;;;;43.85;25.63;;;;;;;;;;5053213;28;20021;-68
2022/03/24 06:08:52;;;;;;;42.28;24.50;;;;;;;;;;5053267;28;20024;-67
2022/03/24 06:11:18;;;;;;;42.70;24.35;;;;;;;;;;5053201;28;20108;-69
2022/03/24 06:13:46;;;;;;;43.78;25.08;;;;;;;;;;5053076;28;20399;-68
2022/03/24 06:16:13;;;;;;;70.18;41.65;;;;;;;;;;5053136;28;20032;-69
2022/03/24 06:18:40;;;;;;;60.53;40.17;;;;;;;;;;5053214;28;20364;-68
2022/03/24 06:21:07;;;;;;;61.80;37.28;;;;;;;;;;5053116;28;20361;-68
2022/03/24 06:23:33;;;;;;;51.05;29.75;;;;;;;;;;5052952;28;20168;-68
2022/03/24 06:25:59;;;;;;;49.42;27.58;;;;;;;;;;5062624;28;20048;-67
2022/03/24 06:28:25;;;;;;;47.80;26.05;;;;;;;;;;5073004;28;20032;-68
2022/03/24 06:30:51;;;;;;;44.60;24.25;;;;;;;;;;5072623;28;20107;-68
2022/03/24 06:33:18;;;;;;;41.92;23.70;;;;;;;;;;5072738;28;20024;-68
2022/03/24 06:35:44;;;;;;;42.78;24.30;;;;;;;;;;5072730;28;20394;-68
2022/03/24 06:38:12;;;;;;;53.40;26.23;;;;;;;;;;5072940;28;20017;-68
2022/03/24 06:40:39;;;;;;;44.83;25.02;;;;;;;;;;5072601;28;20040;-68
2022/03/24 06:43:06;;;;;;;34.65;21.13;;;;;;;;;;5072431;28;20052;-67
2022/03/24 06:45:32;;;;;;;42.33;21.67;;;;;;;;;;5072527;28;20471;-67
2022/03/24 06:47:58;;;;;;;29.50;19.10;;;;;;;;;;5072603;28;20048;-67
2022/03/24 06:50:24;;;;;;;36.53;21.35;;;;;;;;;;5072686;28;20383;-68
2022/03/24 06:52:50;;;;;;;41.03;22.40;;;;;;;;;;5072474;28;20025;-68
2022/03/24 06:55:16;;;;;;;40.15;22.13;;;;;;;;;;5072377;28;20143;-69
2022/03/24 06:57:43;;;;;;;42.58;23.42;;;;;;;;;;5072611;28;20422;-67
2022/03/24 07:00:13;;;;;;;36.70;24.05;;;;;;;;;;5072429;28;20551;-67
2022/03/24 07:02:39;;;;;;;38.20;25.67;;;;;;;;;;5072779;28;20387;-68
2022/03/24 07:05:07;;;;;;;38.38;22.55;;;;;;;;;;5072419;28;20029;-67
2022/03/24 07:07:34;;;;;;;42.53;25.38;;;;;;;;;;5072505;28;20025;-67
2022/03/24 07:10:00;;;;;;;45.03;24.70;;;;;;;;;;5076421;28;20059;-67
2022/03/24 07:12:26;;;;;;;33.78;21.48;;;;;;;;;;5076324;28;20045;-67
2022/03/24 07:14:52;;;;;;;47.45;35.22;;;;;;;;;;5075656;28;20055;-67
2022/03/24 07:17:19;;;;;;;35.75;25.15;;;;;;;;;;5076266;28;20035;-67
2022/03/24 07:19:45;;;;;;;37.00;23.88;;;;;;;;;;5076342;28;20111;-67
2022/03/24 07:22:11;;;;;;;39.25;24.23;;;;;;;;;;5076234;28;20363;-67
2022/03/24 07:24:38;;;;;;;31.77;20.88;;;;;;;;;;5076053;28;20029;-67
2022/03/24 07:27:05;;;;;;;36.38;21.42;;;;;;;;;;5076024;28;20040;-68
2022/03/24 07:29:31;;;;;;;49.63;27.00;;;;;;;;;;5058330;28;20025;-68
2022/03/24 07:31:57;;;;;;;133.68;77.78;;;;;;;;;;5076136;28;20025;-68
2022/03/24 07:34:24;;;;;;;41.65;25.70;;;;;;;;;;5076002;28;20036;-68
2022/03/24 07:36:50;;;;;;;36.17;22.45;;;;;;;;;;5076306;28;20374;-68
2022/03/24 07:39:16;;;;;;;42.50;25.23;;;;;;;;;;5076052;28;20024;-68
2022/03/24 07:41:42;;;;;;;42.40;25.30;;;;;;;;;;5075987;28;20050;-68
2022/03/24 07:44:08;;;;;;;44.90;26.88;;;;;;;;;;5076243;28;20238;-68
2022/03/24 07:46:34;;;;;;;38.83;25.42;;;;;;;;;;5076180;28;20024;-68
2022/03/24 07:49:00;;;;;;;36.55;21.77;;;;;;;;;;5075779;28;20107;-67
2022/03/24 07:51:31;;;;;;;41.28;20.65;;;;;;;;;;5075624;28;20151;-69
2022/03/24 07:53:59;;;;;;;32.05;17.83;;;;;;;;;;5075618;28;20489;-68
2022/03/24 07:56:26;;;;;;;28.42;17.35;;;;;;;;;;5075569;28;20464;-68
2022/03/24 07:58:52;;;;;;;31.45;16.95;;;;;;;;;;5075448;28;20479;-68
2022/03/24 08:01:33;;;;;;;28.25;16.30;;;436.10;1075.20;;;;;;5075402;28;20055;-67
2022/03/24 08:04:00;;;;;;;26.35;14.43;;;;;;;;;;5075598;28;20020;-68
2022/03/24 08:06:27;;;;;;;25.92;13.93;;;;;;;;;;5075380;28;20074;-68
2022/03/24 08:08:53;;;;;;;43.83;18.55;;;461.20;1024.00;;;;;;5075349;28;20078;-68
2022/03/24 08:11:18;;;;;;;22.45;10.35;;;461.20;1126.40;;;;;;5075329;28;20033;-68
2022/03/24 08:13:47;;;;;;;22.75;10.88;;;;;;;;;;5075196;28;20472;-68
2022/03/24 08:16:14;;;;;;;29.42;12.27;;;;;;;;;;5075037;28;20074;-68
2022/03/24 08:18:40;;;;;;;15.25;9.35;;;;;;;;;;5075183;28;20379;-67
2022/03/24 08:21:06;;;;;;;25.98;9.70;;;486.60;896.00;;;;;;5074131;28;20040;-68
2022/03/24 08:23:32;;;;;;;13.93;8.85;;;;;;;;;;5075100;28;20467;-68
2022/03/24 08:25:58;;;;;;;23.38;10.55;;;;;;;;;;5075021;28;20066;-68
2022/03/24 08:28:24;;;;;;;16.80;9.38;;;;;;;;;;5075161;28;20058;-68
2022/03/24 08:30:50;;;;;;;40.47;21.08;;;;;;;;;;5075355;28;20105;-68
2022/03/24 08:33:16;;;;;;;18.23;10.25;;;;;;;;;;5074821;28;20025;-68
2022/03/24 08:35:43;;;;;;;16.77;7.88;;;;;;;;;;5074819;28;20491;-68
2022/03/24 08:38:10;;;;;;;27.05;9.68;;;;;;;;;;5074527;28;20107;-68
2022/03/24 08:40:36;;;;;;;18.75;10.05;;;;;;;;;;5074799;28;20028;-68
2022/03/24 08:43:03;;;;;;;14.10;8.82;;;;;;;;;;5074401;28;20142;-68
2022/03/24 08:45:30;;;;;;;32.90;9.05;;;;;;;;;;5074615;28;20044;-68
2022/03/24 08:47:56;;;;;;;17.73;9.05;;;;;;;;;;5074644;28;20017;-68
2022/03/24 08:50:23;;;;;;;17.40;8.85;;;537.80;793.60;;;;;;5074404;28;20074;-68
2022/03/24 08:52:49;;;;;;;44.38;15.77;;;538.00;793.60;;;;;;5074551;28;20025;-68
2022/03/24 08:55:16;;;;;;;27.20;14.65;;;538.10;793.60;;;;;;5074387;28;20032;-68
2022/03/24 08:57:43;;;;;;;19.45;12.75;;;538.40;793.60;;;;;;5074446;28;20024;-68
2022/03/24 09:00:12;;;;;;;15.07;7.22;;;538.40;793.60;;;;;;5074450;28;20024;-68
2022/03/24 09:02:56;;;;;;;15.20;7.97;;;538.50;768.00;;;;;;5074408;28;20025;-68
2022/03/24 09:05:23;;;;;;;12.88;7.35;;;538.40;742.40;;;;;;5074583;28;20038;-68
2022/03/24 09:07:49;;;;;;;12.38;6.65;;;538.40;768.00;;;;;;5074160;28;20031;-68
2022/03/24 09:10:15;;;;;;;14.65;6.63;;;538.30;793.60;;;;;;5074516;28;20029;-68
2022/03/24 09:12:44;;;;;;;15.25;8.10;;;538.50;768.00;;;;;;5074297;28;20017;-68
2022/03/24 09:15:11;;;;;;;23.20;11.57;;;538.50;742.40;;;;;;5073764;28;20119;-68
2022/03/24 09:17:39;;;;;;;17.77;9.05;;;563.20;793.60;;;;;;5074168;28;20067;-68
2022/03/24 09:20:10;;;;;;;20.65;7.00;;;563.50;768.00;;;;;;5073900;28;20028;-68
2022/03/24 09:22:40;;;;;;;20.75;12.27;;;;;;;;;;5074058;28;20020;-68
2022/03/24 09:25:07;;;;;;;20.75;9.77;;;;;;;;;;5073666;28;20032;-67
2022/03/24 09:27:33;;;;;;;51.95;21.73;;;;;;;;;;5073909;28;20028;-67
2022/03/24 09:29:59;;;;;;;18.00;7.90;;;;;;;;;;5074054;28;20036;-67
2022/03/24 09:32:25;;;;;;;19.55;8.13;;;;;;;;;;5073678;28;20130;-67
2022/03/24 09:34:51;;;;;;;21.35;11.77;;;;;;;;;;5073710;28;20414;-67
2022/03/24 09:37:18;;;;;;;13.50;7.10;;;;;;;;;;5073501;28;20016;-67
2022/03/24 09:39:45;;;;;;;10.82;6.60;;;;;;;;;;5055710;28;20074;-67
2022/03/24 09:42:11;;;;;;;22.55;9.60;;;;;;;;;;5073439;28;20020;-67
2022/03/24 09:44:37;;;;;;;22.05;10.10;;;;;;;;;;5073398;28;20024;-68
2022/03/24 09:47:04;;;;;;;13.05;8.50;;;;;;;;;;5073721;28;20068;-70
2022/03/24 09:49:33;;;;;;;14.85;8.70;;;;;;;;;;5073324;28;20068;-68
2022/03/24 09:51:59;;;;;;;11.20;7.03;;;896.90;435.20;;;;;;5073392;28;20024;-69
2022/03/24 09:54:25;;;;;;;16.80;9.73;;;;;;;;;;5073042;28;20043;-69
2022/03/24 09:56:51;;;;;;;13.98;7.97;;;922.50;460.80;;;;;;5073420;28;20021;-69
2022/03/24 09:59:17;;;;;;;13.88;8.45;;;947.40;460.80;;;;;;5073303;28;20028;-69
2022/03/24 10:01:42;;;;;;;16.90;7.78;;;973.60;409.60;;;;;;5073255;28;20024;-69
2022/03/24 10:04:15;;;;;;;23.35;9.20;;;973.40;435.20;;;;;;5073175;28;20047;-69
2022/03/24 10:06:58;;;;;;;10.15;7.20;;;;;;;;;;5073079;28;20027;-69
2022/03/24 10:09:45;;;;;;;20.00;9.65;;;1024.40;409.60;;;;;;5073432;28;20039;-69
2022/03/24 10:12:20;;;;;;;20.73;7.65;;;;;;;;;;5073184;28;20025;-69
2022/03/24 10:14:55;;;;;;;11.02;7.82;;;1024.90;409.60;;;;;;5054966;28;20062;-69
2022/03/24 10:17:21;;;;;;;14.98;8.50;;;;;;;;;;5072934;28;20028;-69
2022/03/24 10:19:58;;;;;;;14.10;8.45;;;;;;;;;;5073334;28;20471;-69
2022/03/24 10:22:25;;;;;;;16.17;8.02;;;;;;;;;;5072846;28;20056;-69
2022/03/24 10:24:51;;;;;;;12.32;8.73;;;;;;;;;;5072519;28;20073;-68
2022/03/24 10:27:24;;;;;;;11.35;7.28;;;1101.10;384.00;;;;;;5072906;28;20112;-69
2022/03/24 10:29:54;;;;;;;11.95;8.10;;;1101.20;384.00;;;;;;5072737;28;20101;-69
2022/03/24 10:32:21;;;;;;;13.02;8.88;;;1101.60;384.00;;;;;;5072713;28;20017;-70
2022/03/24 10:34:48;;;;;;;18.63;9.20;;;;;;;;;;5072724;28;20044;-70
2022/03/24 10:37:19;;;;;;;11.48;8.10;;;1126.50;409.60;;;;;;5072679;28;20039;-70
2022/03/24 10:40:01;;;;;;;13.07;7.57;;;1126.40;409.60;;;;;;5072802;28;20017;-69
2022/03/24 10:42:29;;;;;;;19.25;9.32;;;1126.50;409.60;;;;;;5072629;28;20029;-70
2022/03/24 10:45:15;;;;;;;10.77;8.68;;;;;;;;;;5072397;28;20036;-69
2022/03/24 10:47:44;;;;;;;16.80;9.43;;;;;;;;;;5054601;28;20036;-70
2022/03/24 10:50:20;;;;;;;12.33;8.77;;;;;;;;;;5072528;28;20089;-70
2022/03/24 10:52:46;;;;;;;10.00;7.00;;;1152.10;409.60;;;;;;5072470;28;20027;-71
2022/03/24 10:55:12;;;;;;;18.65;8.65;;;;;;;;;;5072516;28;20115;-70
2022/03/24 10:57:39;;;;;;;14.55;8.75;;;;;;;;;;5072637;28;20028;-70
2022/03/24 11:00:05;;;;;;;15.98;8.15;;;1126.80;409.60;;;;;;5072566;28;20103;-70
2022/03/24 11:02:33;;;;;;;16.33;8.23;;;;;;;;;;5072714;28;20031;-70
2022/03/24 11:05:12;;;;;;;25.98;23.55;;;1152.10;409.60;;;;;;5072306;28;20041;-70
2022/03/24 11:07:38;;;;;;;16.00;9.70;;;;;;;;;;5072560;28;20021;-70
2022/03/24 11:10:11;;;;;;;18.65;9.10;;;1127.30;409.60;;;;;;5072553;28;20025;-69
2022/03/24 11:12:38;;;;;;;14.60;8.10;;;1127.30;409.60;;;;;;5072773;28;20048;-70
2022/03/24 11:15:09;;;;;;;10.15;7.43;;;1152.10;409.60;;;;;;5072241;28;20032;-70
2022/03/24 11:17:37;;;;;;;13.20;8.05;;;;;;;;;;5072689;28;20037;-70
2022/03/24 11:20:16;;;;;;;21.25;7.07;;;;;;;;;;5072381;28;20493;-70
2022/03/24 11:23:24;;;;;;;13.10;8.93;;;1126.60;409.60;;;;;;5072075;28;20032;-69
2022/03/24 11:25:53;;;;;;;15.55;7.35;;;;;;;;;;5061264;28;20072;-69
2022/03/24 11:28:21;;;;;;;11.93;6.78;;;1101.70;384.00;;;;;;5072273;28;20028;-70
2022/03/24 11:30:47;;;;;;;21.40;8.57;;;1126.80;409.60;;;;;;5072295;28;20027;-70
2022/03/24 11:33:16;;;;;;;10.35;7.00;;;;;;;;;;5072252;28;20029;-70
2022/03/24 11:35:43;;;;;;;18.90;7.70;;;;;;;;;;5072522;28;20040;-70
2022/03/24 11:38:09;;;;;;;14.73;7.63;;;;;;;;;;5072013;28;20033;-70
2022/03/24 11:40:36;;;;;;;18.73;8.38;;;;;;;;;;5072205;28;20111;-69
2022/03/24 11:43:02;;;;;;;13.40;8.63;;;;;;;;;;5072129;28;20024;-70
2022/03/24 11:45:30;;;;;;;15.13;8.20;;;;;;;;;;5072284;28;20032;-70
2022/03/24 11:48:06;;;;;;;14.60;8.57;;;1050.30;358.40;;;;;;5071942;28;20025;-70
2022/03/24 11:50:35;;;;;;;18.73;8.68;;;;;;;;;;5072321;28;20028;-70
2022/03/24 11:53:11;;;;;;;13.40;8.48;;;;;;;;;;5072064;28;20028;-69
2022/03/24 11:55:37;;;;;;;20.13;12.52;;;;;;;;;;5075742;28;20435;-69
2022/03/24 11:58:04;;;;;;;18.48;8.57;;;1024.10;358.40;;;;;;5075659;28;20020;-69
2022/03/24 12:00:30;;;;;;;24.25;12.88;;;;;;;;;;5075589;28;20048;-70
2022/03/24 12:03:00;;;;;;;8.68;6.60;;;998.90;384.00;;;;;;5075704;28;20025;-69
2022/03/24 12:05:26;;;;;;;;;;;;;;;;;;5076043;28;20051;-69
2022/03/24 12:08:04;;;;;;;18.63;8.10;;;973.20;358.40;;;;;;5075441;28;19935;-69
2022/03/24 12:10:31;;;;;;;15.23;8.77;;;948.10;384.00;;;;;;5075631;28;20025;-69
2022/03/24 12:13:13;;;;;;;26.65;9.80;;;947.90;384.00;;;;;;5075339;28;20033;-69
2022/03/24 12:15:39;;;;;;;35.08;9.80;;;947.50;384.00;;;;;;5075285;28;20045;-69
2022/03/24 12:18:07;;;;;;;70.88;13.82;;;947.50;409.60;;;;;;5075379;28;20074;-69
2022/03/24 12:20:44;;;;;;;14.68;7.45;;;947.90;384.00;;;;;;5057052;28;20029;-69
2022/03/24 12:23:10;;;;;;;23.85;8.95;;;947.70;358.40;;;;;;5074946;28;20437;-69
2022/03/24 12:25:38;;;;;;;11.70;6.88;;;922.50;384.00;;;;;;5074917;28;20052;-70
2022/03/24 12:28:07;;;;;;;25.73;8.70;;;947.40;384.00;;;;;;5075217;28;20024;-70
2022/03/24 12:30:59;;;;;;;12.55;6.45;;;922.40;409.60;;;;;;5074883;28;20020;-70
2022/03/24 12:33:40;;;;;;;15.43;7.45;;;922.10;384.00;;;;;;5074634;28;20028;-70
2022/03/24 12:36:07;;;;;;;12.05;6.65;;;922.30;384.00;;;;;;5074738;28;20020;-70
2022/03/24 12:38:33;;;;;;;19.77;9.52;;;;;;;;;;5074741;28;20566;-70
2022/03/24 12:41:05;;;;;;;32.17;10.07;;;921.90;384.00;;;;;;5074977;28;20494;-70
2022/03/24 12:43:40;;;;;;;24.83;8.40;;;922.00;409.60;;;;;;5074650;28;20069;-70
2022/03/24 12:46:21;;;;;;;15.27;7.20;;;921.90;409.60;;;;;;5075189;28;20025;-70
2022/03/24 12:48:47;;;;;;;11.88;7.68;;;922.30;409.60;;;;;;5074609;28;20052;-70
2022/03/24 12:51:22;;;;;;;22.50;8.50;;;922.00;409.60;;;;;;5074489;28;20044;-70
2022/03/24 12:54:03;;;;;;;10.27;7.03;;;;;;;;;;5074261;28;20029;-70
2022/03/24 12:56:31;;;;;;;16.67;8.05;;;896.30;409.60;;;;;;5074485;28;20028;-70
2022/03/24 12:59:06;;;;;;;21.58;10.30;;;;;;;;;;5075169;28;20017;-70
2022/03/24 13:01:36;;;;;;;10.35;7.55;;;870.50;460.80;;;;;;5074418;28;20020;-70
2022/03/24 13:04:04;;;;;;;16.23;8.93;;;;;;;;;;5074417;28;20024;-70
2022/03/24 13:06:30;;;;;;;17.08;9.68;;;;;;;;;;5073864;28;20253;-70
2022/03/24 13:09:16;;;;;;;21.90;11.45;;;;;;;;;;5074324;28;20482;-70
2022/03/24 13:11:51;;;;;;;18.88;8.93;;;;;;;;;;5074054;28;20055;-67
2022/03/24 13:14:19;;;;;;;30.17;9.80;;;;;;;;;;5074242;28;20128;-68
2022/03/24 13:17:10;;;;;;;20.15;8.90;;;768.90;460.80;;;;;;5074569;28;20027;-68
2022/03/24 13:19:37;;;;;;;20.35;10.55;;;768.40;512.00;;;;;;5074239;28;20055;-69
2022/03/24 13:22:11;;;;;;;23.13;13.68;;;768.00;537.60;;;;;;5074026;28;20031;-69
2022/03/24 13:24:38;;;;;;;22.45;12.05;;;;;;;;;;5073846;28;20025;-68
2022/03/24 13:27:04;;;;;;;42.08;12.35;;;;;;;;;;5073759;28;20049;-68
2022/03/24 13:29:36;;;;;;;19.55;8.57;;;;;;;;;;5073822;28;20044;-69
2022/03/24 13:32:13;;;;;;;23.00;10.07;;;;;;;;;;5074019;28;20387;-69
2022/03/24 13:34:46;;;;;;;13.93;7.93;;;;;;;;;;5073730;28;20039;-69
2022/03/24 13:37:13;;;;;;;13.45;8.05;;;;;;;;;;5073352;28;20020;-69
2022/03/24 13:39:39;;;;;;;15.82;9.23;;;;;;;;;;5073576;28;20487;-68
2022/03/24 13:42:08;;;;;;;15.40;9.38;;;;;;;;;;5073656;28;20033;-68
2022/03/24 13:44:35;;;;;;;22.38;9.55;;;742.80;537.60;;;;;;5073424;28;20029;-68